FHOLK LFPN-LFPN
Flight info
| Callsign | FHOLK |
|---|---|
| Flight time | 0h 46m |
| Altitude | 3500 |
| Route | DCT |
| Aircraft | C172/L-SDGYF/SB1 |
Departure
| Time | 2026-04-16 14:01 |
|---|---|
| Airport | Toussus-le-Noble Airport (LFPN) |
Arrival
| Time | 2026-04-16 14:48 |
|---|---|
| Airport | Toussus-le-Noble Airport (LFPN) |
| Time | Latitude | Longitude | Altitude | Speed | Heading |
|---|---|---|---|---|---|
| 2026-04-16 13:49 | 48.74772 | 2.10037 | 542 ft | 0 kts | 178° |
| 2026-04-16 13:54 | 48.74758 | 2.10030 | 542 ft | 7 kts | 212° |
| 2026-04-16 13:54 | 48.74770 | 2.09990 | 542 ft | 8 kts | 1° |
| 2026-04-16 13:54 | 48.74830 | 2.10003 | 542 ft | 11 kts | 64° |
| 2026-04-16 13:55 | 48.74835 | 2.10129 | 542 ft | 14 kts | 87° |
| 2026-04-16 13:55 | 48.74839 | 2.10285 | 542 ft | 15 kts | 90° |
| 2026-04-16 13:55 | 48.74843 | 2.10460 | 542 ft | 18 kts | 88° |
| 2026-04-16 13:55 | 48.74847 | 2.10661 | 542 ft | 20 kts | 89° |
| 2026-04-16 13:56 | 48.74894 | 2.10847 | 542 ft | 20 kts | 51° |
| 2026-04-16 13:56 | 48.74969 | 2.10977 | 542 ft | 17 kts | 31° |
| 2026-04-16 13:56 | 48.75092 | 2.11017 | 542 ft | 18 kts | 27° |
| 2026-04-16 13:56 | 48.75139 | 2.11166 | 542 ft | 17 kts | 72° |
| 2026-04-16 13:57 | 48.75183 | 2.11367 | 542 ft | 23 kts | 72° |
| 2026-04-16 13:57 | 48.75243 | 2.11563 | 542 ft | 20 kts | 34° |
| 2026-04-16 13:57 | 48.75315 | 2.11576 | 542 ft | 0 kts | 338° |
| 2026-04-16 13:59 | 48.75316 | 2.11576 | 542 ft | 0 kts | 337° |
| 2026-04-16 13:59 | 48.75328 | 2.11567 | 542 ft | 7 kts | 332° |
| 2026-04-16 14:00 | 48.75368 | 2.11470 | 542 ft | 16 kts | 293° |
| 2026-04-16 14:00 | 48.75411 | 2.11307 | 541 ft | 15 kts | 299° |
| 2026-04-16 14:00 | 48.75421 | 2.11211 | 540 ft | 20 kts | 250° |
| 2026-04-16 14:00 | 48.75326 | 2.10790 | 543 ft | 61 kts | 252° |
| 2026-04-16 14:01 | 48.75167 | 2.10105 | 635 ft | 73 kts | 246° |
| 2026-04-16 14:01 | 48.74992 | 2.09408 | 840 ft | 70 kts | 246° |
| 2026-04-16 14:01 | 48.74828 | 2.08661 | 1030 ft | 81 kts | 259° |
| 2026-04-16 14:01 | 48.74736 | 2.07715 | 1150 ft | 96 kts | 262° |
| 2026-04-16 14:02 | 48.74656 | 2.06794 | 1485 ft | 88 kts | 261° |
| 2026-04-16 14:02 | 48.74560 | 2.05779 | 1491 ft | 101 kts | 262° |
| 2026-04-16 14:02 | 48.74466 | 2.04717 | 1487 ft | 102 kts | 261° |
| 2026-04-16 14:02 | 48.74242 | 2.03718 | 1486 ft | 99 kts | 249° |
| 2026-04-16 14:03 | 48.73991 | 2.02750 | 1495 ft | 99 kts | 251° |
| 2026-04-16 14:03 | 48.73752 | 2.01832 | 1498 ft | 91 kts | 250° |
| 2026-04-16 14:03 | 48.73524 | 2.00960 | 1481 ft | 86 kts | 250° |
| 2026-04-16 14:03 | 48.73308 | 2.00114 | 1492 ft | 86 kts | 250° |
| 2026-04-16 14:04 | 48.73073 | 1.99215 | 1495 ft | 97 kts | 250° |
| 2026-04-16 14:04 | 48.72827 | 1.98262 | 1493 ft | 98 kts | 249° |
| 2026-04-16 14:04 | 48.72592 | 1.97329 | 1497 ft | 92 kts | 250° |
| 2026-04-16 14:04 | 48.72357 | 1.96387 | 1480 ft | 98 kts | 249° |
| 2026-04-16 14:05 | 48.72124 | 1.95431 | 1490 ft | 97 kts | 250° |
| 2026-04-16 14:05 | 48.71885 | 1.94479 | 1485 ft | 95 kts | 249° |
| 2026-04-16 14:05 | 48.71653 | 1.93542 | 1481 ft | 97 kts | 250° |
| 2026-04-16 14:05 | 48.71364 | 1.92608 | 1492 ft | 101 kts | 228° |
| 2026-04-16 14:06 | 48.70653 | 1.92304 | 1500 ft | 117 kts | 179° |
| 2026-04-16 14:06 | 48.69860 | 1.92679 | 1499 ft | 120 kts | 163° |
| 2026-04-16 14:06 | 48.69081 | 1.93108 | 1499 ft | 120 kts | 165° |
| 2026-04-16 14:06 | 48.68288 | 1.93500 | 1499 ft | 120 kts | 167° |
| 2026-04-16 14:07 | 48.67511 | 1.93873 | 1494 ft | 116 kts | 167° |
| 2026-04-16 14:07 | 48.66752 | 1.94230 | 1494 ft | 116 kts | 167° |
| 2026-04-16 14:07 | 48.65982 | 1.94586 | 1636 ft | 108 kts | 167° |
| 2026-04-16 14:07 | 48.65336 | 1.94904 | 1966 ft | 95 kts | 167° |
| 2026-04-16 14:08 | 48.64633 | 1.95221 | 1960 ft | 115 kts | 168° |
| 2026-04-16 14:08 | 48.63844 | 1.95581 | 1979 ft | 121 kts | 168° |
| 2026-04-16 14:08 | 48.63031 | 1.95955 | 1980 ft | 122 kts | 168° |
| 2026-04-16 14:08 | 48.62210 | 1.96334 | 1976 ft | 123 kts | 170° |
| 2026-04-16 14:09 | 48.61392 | 1.96711 | 1974 ft | 123 kts | 168° |
| 2026-04-16 14:09 | 48.60576 | 1.97088 | 1976 ft | 124 kts | 168° |
| 2026-04-16 14:09 | 48.59743 | 1.97469 | 1979 ft | 126 kts | 166° |
| 2026-04-16 14:09 | 48.58901 | 1.97856 | 1976 ft | 126 kts | 167° |
| 2026-04-16 14:10 | 48.58069 | 1.98241 | 1981 ft | 125 kts | 167° |
| 2026-04-16 14:10 | 48.57231 | 1.98623 | 1986 ft | 127 kts | 168° |
| 2026-04-16 14:10 | 48.56393 | 1.99005 | 1971 ft | 124 kts | 167° |
| 2026-04-16 14:10 | 48.55586 | 1.99375 | 1968 ft | 118 kts | 167° |
| 2026-04-16 14:11 | 48.54799 | 1.99735 | 1962 ft | 115 kts | 167° |
| 2026-04-16 14:11 | 48.54047 | 2.00086 | 1964 ft | 115 kts | 167° |
| 2026-04-16 14:11 | 48.53267 | 2.00323 | 1971 ft | 113 kts | 188° |
| 2026-04-16 14:11 | 48.52508 | 2.00116 | 1996 ft | 113 kts | 196° |
| 2026-04-16 14:12 | 48.51723 | 1.99832 | 1972 ft | 118 kts | 196° |
| 2026-04-16 14:12 | 48.50931 | 1.99565 | 1996 ft | 117 kts | 197° |
| 2026-04-16 14:12 | 48.50099 | 1.99581 | 1968 ft | 127 kts | 163° |
| 2026-04-16 14:12 | 48.49300 | 2.00134 | 1984 ft | 127 kts | 159° |
| 2026-04-16 14:13 | 48.48482 | 2.00668 | 1981 ft | 128 kts | 161° |
| 2026-04-16 14:13 | 48.47676 | 2.01195 | 1977 ft | 124 kts | 161° |
| 2026-04-16 14:13 | 48.46880 | 2.01713 | 1973 ft | 125 kts | 162° |
| 2026-04-16 14:13 | 48.46086 | 2.02227 | 1980 ft | 123 kts | 162° |
| 2026-04-16 14:14 | 48.45299 | 2.02739 | 1978 ft | 124 kts | 160° |
| 2026-04-16 14:14 | 48.44507 | 2.03251 | 1972 ft | 123 kts | 163° |
| 2026-04-16 14:14 | 48.43729 | 2.03755 | 1980 ft | 123 kts | 160° |
| 2026-04-16 14:14 | 48.42932 | 2.04266 | 1973 ft | 125 kts | 161° |
| 2026-04-16 14:15 | 48.42130 | 2.04786 | 1988 ft | 127 kts | 162° |
| 2026-04-16 14:15 | 48.41312 | 2.05313 | 1976 ft | 126 kts | 162° |
| 2026-04-16 14:15 | 48.40523 | 2.05824 | 1980 ft | 124 kts | 161° |
| 2026-04-16 14:15 | 48.39732 | 2.06337 | 1976 ft | 123 kts | 160° |
| 2026-04-16 14:16 | 48.38966 | 2.06836 | 1980 ft | 119 kts | 160° |
| 2026-04-16 14:16 | 48.38214 | 2.07318 | 1968 ft | 113 kts | 161° |
| 2026-04-16 14:16 | 48.37504 | 2.07775 | 1968 ft | 109 kts | 161° |
| 2026-04-16 14:16 | 48.36810 | 2.08027 | 1980 ft | 102 kts | 199° |
| 2026-04-16 14:17 | 48.36357 | 2.07305 | 1979 ft | 95 kts | 248° |
| 2026-04-16 14:17 | 48.36012 | 2.06477 | 1985 ft | 96 kts | 238° |
| 2026-04-16 14:17 | 48.35626 | 2.05646 | 1990 ft | 98 kts | 237° |
| 2026-04-16 14:17 | 48.35240 | 2.04788 | 1990 ft | 99 kts | 237° |
| 2026-04-16 14:18 | 48.34976 | 2.03863 | 1983 ft | 97 kts | 277° |
| 2026-04-16 14:18 | 48.35426 | 2.03136 | 1995 ft | 102 kts | 329° |
| 2026-04-16 14:18 | 48.36059 | 2.02622 | 1963 ft | 105 kts | 328° |
| 2026-04-16 14:18 | 48.36719 | 2.02065 | 1854 ft | 111 kts | 327° |
| 2026-04-16 14:19 | 48.37403 | 2.01523 | 1733 ft | 110 kts | 336° |
| 2026-04-16 14:19 | 48.38123 | 2.01740 | 1595 ft | 111 kts | 45° |
| 2026-04-16 14:19 | 48.38527 | 2.02692 | 1485 ft | 103 kts | 57° |
| 2026-04-16 14:19 | 48.38869 | 2.03538 | 1493 ft | 94 kts | 57° |
| 2026-04-16 14:20 | 48.39210 | 2.04363 | 1499 ft | 96 kts | 57° |
| 2026-04-16 14:20 | 48.39582 | 2.05275 | 1488 ft | 105 kts | 56° |
| 2026-04-16 14:20 | 48.39956 | 2.06201 | 1484 ft | 102 kts | 57° |
| 2026-04-16 14:20 | 48.40203 | 2.06803 | 1493 ft | 102 kts | 57° |
| 2026-04-16 14:21 | 48.40583 | 2.07735 | 1489 ft | 105 kts | 57° |
| 2026-04-16 14:21 | 48.40970 | 2.08684 | 1488 ft | 106 kts | 58° |
| 2026-04-16 14:21 | 48.41360 | 2.09641 | 1487 ft | 109 kts | 58° |
| 2026-04-16 14:21 | 48.41747 | 2.10623 | 1489 ft | 111 kts | 68° |
| 2026-04-16 14:22 | 48.41618 | 2.11702 | 1487 ft | 110 kts | 138° |
| 2026-04-16 14:22 | 48.41016 | 2.12374 | 1463 ft | 109 kts | 149° |
| 2026-04-16 14:22 | 48.40356 | 2.12614 | 1386 ft | 91 kts | 210° |
| 2026-04-16 14:22 | 48.39957 | 2.11980 | 1202 ft | 83 kts | 242° |
| 2026-04-16 14:23 | 48.39651 | 2.11259 | 1089 ft | 75 kts | 239° |
| 2026-04-16 14:23 | 48.39368 | 2.10649 | 934 ft | 69 kts | 238° |
| 2026-04-16 14:23 | 48.39103 | 2.10038 | 862 ft | 72 kts | 237° |
| 2026-04-16 14:23 | 48.38825 | 2.09395 | 767 ft | 76 kts | 240° |
| 2026-04-16 14:24 | 48.38541 | 2.08732 | 621 ft | 74 kts | 239° |
| 2026-04-16 14:24 | 48.38274 | 2.08117 | 512 ft | 68 kts | 239° |
| 2026-04-16 14:24 | 48.38044 | 2.07590 | 491 ft | 55 kts | 235° |
| 2026-04-16 14:24 | 48.37769 | 2.07013 | 551 ft | 75 kts | 236° |
| 2026-04-16 14:25 | 48.37444 | 2.06361 | 656 ft | 82 kts | 237° |
| 2026-04-16 14:25 | 48.37113 | 2.05661 | 821 ft | 81 kts | 236° |
| 2026-04-16 14:25 | 48.36770 | 2.04929 | 998 ft | 84 kts | 238° |
| 2026-04-16 14:25 | 48.36476 | 2.04207 | 1215 ft | 81 kts | 263° |
| 2026-04-16 14:26 | 48.36787 | 2.03574 | 1426 ft | 84 kts | 330° |
| 2026-04-16 14:26 | 48.37335 | 2.03107 | 1493 ft | 102 kts | 327° |
| 2026-04-16 14:26 | 48.38025 | 2.02584 | 1494 ft | 121 kts | 346° |
| 2026-04-16 14:26 | 48.38728 | 2.02985 | 1497 ft | 105 kts | 54° |
| 2026-04-16 14:27 | 48.39078 | 2.03876 | 1454 ft | 93 kts | 57° |
| 2026-04-16 14:27 | 48.39391 | 2.04649 | 1484 ft | 89 kts | 58° |
| 2026-04-16 14:27 | 48.39716 | 2.05453 | 1490 ft | 88 kts | 58° |
| 2026-04-16 14:27 | 48.40026 | 2.06228 | 1482 ft | 86 kts | 58° |
| 2026-04-16 14:28 | 48.40339 | 2.07000 | 1482 ft | 88 kts | 57° |
| 2026-04-16 14:28 | 48.40658 | 2.07791 | 1484 ft | 89 kts | 59° |
| 2026-04-16 14:28 | 48.40982 | 2.08591 | 1483 ft | 89 kts | 58° |
| 2026-04-16 14:28 | 48.41274 | 2.09416 | 1480 ft | 90 kts | 82° |
| 2026-04-16 14:29 | 48.41001 | 2.10166 | 1487 ft | 86 kts | 151° |
| 2026-04-16 14:29 | 48.40520 | 2.10713 | 1481 ft | 83 kts | 147° |
| 2026-04-16 14:29 | 48.40016 | 2.11067 | 1374 ft | 80 kts | 188° |
| 2026-04-16 14:29 | 48.39512 | 2.10687 | 1134 ft | 87 kts | 224° |
| 2026-04-16 14:30 | 48.39135 | 2.10064 | 969 ft | 76 kts | 236° |
| 2026-04-16 14:30 | 48.38849 | 2.09422 | 807 ft | 71 kts | 240° |
| 2026-04-16 14:30 | 48.38577 | 2.08809 | 639 ft | 70 kts | 239° |
| 2026-04-16 14:30 | 48.38311 | 2.08200 | 529 ft | 69 kts | 237° |
| 2026-04-16 14:31 | 48.38071 | 2.07653 | 496 ft | 54 kts | 238° |
| 2026-04-16 14:31 | 48.37825 | 2.07129 | 544 ft | 69 kts | 234° |
| 2026-04-16 14:31 | 48.37514 | 2.06557 | 674 ft | 75 kts | 232° |
| 2026-04-16 14:31 | 48.37161 | 2.05946 | 803 ft | 84 kts | 233° |
| 2026-04-16 14:32 | 48.36787 | 2.05153 | 891 ft | 94 kts | 238° |
| 2026-04-16 14:32 | 48.36437 | 2.04408 | 1162 ft | 85 kts | 236° |
| 2026-04-16 14:32 | 48.36204 | 2.03629 | 1380 ft | 83 kts | 280° |
| 2026-04-16 14:32 | 48.36441 | 2.02868 | 1639 ft | 82 kts | 304° |
| 2026-04-16 14:33 | 48.36922 | 2.02384 | 1870 ft | 86 kts | 338° |
| 2026-04-16 14:33 | 48.37544 | 2.02306 | 2011 ft | 98 kts | 355° |
| 2026-04-16 14:33 | 48.38300 | 2.02258 | 2016 ft | 116 kts | 356° |
| 2026-04-16 14:33 | 48.39123 | 2.02198 | 2023 ft | 119 kts | 356° |
| 2026-04-16 14:34 | 48.39979 | 2.02120 | 1996 ft | 124 kts | 354° |
| 2026-04-16 14:34 | 48.40807 | 2.02045 | 2007 ft | 116 kts | 353° |
| 2026-04-16 14:34 | 48.41607 | 2.01961 | 2003 ft | 115 kts | 354° |
| 2026-04-16 14:34 | 48.42385 | 2.01879 | 1998 ft | 112 kts | 353° |
| 2026-04-16 14:35 | 48.43153 | 2.01796 | 1994 ft | 110 kts | 353° |
| 2026-04-16 14:35 | 48.43938 | 2.01709 | 1998 ft | 116 kts | 353° |
| 2026-04-16 14:35 | 48.44758 | 2.01623 | 2001 ft | 118 kts | 352° |
| 2026-04-16 14:35 | 48.45591 | 2.01534 | 1999 ft | 122 kts | 351° |
| 2026-04-16 14:36 | 48.46438 | 2.01445 | 2000 ft | 122 kts | 352° |
| 2026-04-16 14:36 | 48.47281 | 2.01354 | 2007 ft | 122 kts | 353° |
| 2026-04-16 14:36 | 48.48137 | 2.01268 | 1996 ft | 122 kts | 353° |
| 2026-04-16 14:36 | 48.48993 | 2.01176 | 1999 ft | 126 kts | 351° |
| 2026-04-16 14:37 | 48.49869 | 2.01082 | 1995 ft | 127 kts | 353° |
| 2026-04-16 14:37 | 48.50734 | 2.00998 | 1995 ft | 124 kts | 353° |
| 2026-04-16 14:37 | 48.51578 | 2.00902 | 1989 ft | 120 kts | 353° |
| 2026-04-16 14:37 | 48.52408 | 2.00808 | 1986 ft | 119 kts | 353° |
| 2026-04-16 14:38 | 48.53222 | 2.00721 | 1987 ft | 117 kts | 354° |
| 2026-04-16 14:38 | 48.54041 | 2.00635 | 1988 ft | 118 kts | 353° |
| 2026-04-16 14:38 | 48.54871 | 2.00548 | 1986 ft | 122 kts | 353° |
| 2026-04-16 14:38 | 48.55701 | 2.00459 | 1988 ft | 118 kts | 353° |
| 2026-04-16 14:39 | 48.56521 | 2.00370 | 1990 ft | 118 kts | 353° |
| 2026-04-16 14:39 | 48.57358 | 2.00283 | 1994 ft | 122 kts | 354° |
| 2026-04-16 14:39 | 48.58214 | 2.00193 | 1996 ft | 123 kts | 353° |
| 2026-04-16 14:39 | 48.59048 | 2.00102 | 1987 ft | 116 kts | 352° |
| 2026-04-16 14:40 | 48.59842 | 2.00015 | 1999 ft | 113 kts | 351° |
| 2026-04-16 14:40 | 48.60653 | 1.99927 | 2003 ft | 118 kts | 353° |
| 2026-04-16 14:40 | 48.61480 | 1.99839 | 1995 ft | 119 kts | 352° |
| 2026-04-16 14:40 | 48.62302 | 1.99751 | 1997 ft | 119 kts | 352° |
| 2026-04-16 14:41 | 48.63124 | 1.99664 | 1991 ft | 118 kts | 351° |
| 2026-04-16 14:41 | 48.63941 | 1.99578 | 1988 ft | 115 kts | 352° |
| 2026-04-16 14:41 | 48.64763 | 1.99489 | 1981 ft | 119 kts | 353° |
| 2026-04-16 14:41 | 48.65580 | 1.99416 | 1993 ft | 121 kts | 355° |
| 2026-04-16 14:42 | 48.66351 | 1.99925 | 1990 ft | 128 kts | 43° |
| 2026-04-16 14:42 | 48.66913 | 2.00986 | 1985 ft | 129 kts | 54° |
| 2026-04-16 14:42 | 48.67460 | 2.02129 | 1914 ft | 135 kts | 54° |
| 2026-04-16 14:42 | 48.67984 | 2.03250 | 1699 ft | 127 kts | 54° |
| 2026-04-16 14:43 | 48.68467 | 2.04361 | 1491 ft | 126 kts | 66° |
| 2026-04-16 14:43 | 48.68728 | 2.05510 | 1469 ft | 111 kts | 70° |
| 2026-04-16 14:43 | 48.68914 | 2.06633 | 1337 ft | 113 kts | 79° |
| 2026-04-16 14:43 | 48.69085 | 2.07797 | 1245 ft | 116 kts | 77° |
| 2026-04-16 14:44 | 48.69390 | 2.08885 | 1212 ft | 111 kts | 51° |
| 2026-04-16 14:44 | 48.69881 | 2.09752 | 1210 ft | 106 kts | 51° |
| 2026-04-16 14:44 | 48.70367 | 2.10614 | 1200 ft | 108 kts | 46° |
| 2026-04-16 14:44 | 48.70912 | 2.11381 | 1236 ft | 109 kts | 39° |
| 2026-04-16 14:45 | 48.71559 | 2.12054 | 1265 ft | 116 kts | 31° |
| 2026-04-16 14:45 | 48.72221 | 2.12744 | 1242 ft | 117 kts | 37° |
| 2026-04-16 14:45 | 48.72754 | 2.13488 | 1176 ft | 99 kts | 40° |
| 2026-04-16 14:45 | 48.73258 | 2.14158 | 1056 ft | 94 kts | 43° |
| 2026-04-16 14:46 | 48.73755 | 2.14765 | 1066 ft | 89 kts | 31° |
| 2026-04-16 14:46 | 48.74383 | 2.14745 | 969 ft | 94 kts | 338° |
| 2026-04-16 14:46 | 48.74970 | 2.14346 | 970 ft | 95 kts | 330° |
| 2026-04-16 14:46 | 48.75501 | 2.13890 | 992 ft | 77 kts | 328° |
| 2026-04-16 14:47 | 48.75834 | 2.13257 | 929 ft | 79 kts | 276° |
| 2026-04-16 14:47 | 48.75705 | 2.12437 | 747 ft | 80 kts | 251° |
| 2026-04-16 14:47 | 48.75530 | 2.11689 | 629 ft | 73 kts | 249° |
| 2026-04-16 14:47 | 48.75368 | 2.10972 | 550 ft | 70 kts | 250° |
| 2026-04-16 14:48 | 48.75239 | 2.10368 | 544 ft | 51 kts | 247° |
| 2026-04-16 14:48 | 48.75132 | 2.09955 | 543 ft | 32 kts | 241° |
| 2026-04-16 14:48 | 48.74971 | 2.09775 | 542 ft | 28 kts | 214° |
| 2026-04-16 14:48 | 48.74835 | 2.09799 | 542 ft | 16 kts | 109° |
| 2026-04-16 14:49 | 48.74831 | 2.09966 | 542 ft | 12 kts | 98° |
| 2026-04-16 14:49 | 48.74795 | 2.10006 | 542 ft | 2 kts | 71° |
| 2026-04-16 14:49 | 48.74804 | 2.10017 | 542 ft | 0 kts | 70° |
| 2026-04-16 14:49 | 48.74802 | 2.10019 | 542 ft | 0 kts | 170° |